Time;durP1;ratioP1;P1;durP2;ratioP2;P2;SDS_P1;SDS_P2;PMS_P1;PMS_P2;Temp;Humidity;BMP_temperature;BMP_pressure;BME280_temperature;BME280_humidity;BME280_pressure;Samples;Min_cycle;Max_cycle;Signal;HPM_P1;HPM_P2
2022/10/03 00:01:55;;;;;;;13.82;1.92;;;9.80;99.90;;;;;;5068998;28;20040;-56
2022/10/03 00:04:46;;;;;;;17.65;3.28;;;10.20;99.90;;;;;;5070919;28;20048;-56
2022/10/03 00:07:21;;;;;;;16.77;2.78;;;9.90;99.90;;;;;;5071240;28;20700;-56
2022/10/03 00:09:50;;;;;;;15.73;2.30;;;9.90;99.90;;;;;;5070924;28;20047;-56
2022/10/03 00:12:34;;;;;;;12.40;2.97;;;11.40;99.90;;;;;;5070453;28;20051;-57
2022/10/03 00:15:06;;;;;;;12.52;2.35;;;9.90;99.90;;;;;;5069487;28;20060;-56
2022/10/03 00:17:44;;;;;;;23.95;3.22;;;9.90;99.90;;;;;;5070495;28;20230;-56
2022/10/03 00:20:41;;;;;;;11.82;2.05;;;9.90;99.90;;;;;;5070905;28;20044;-56
2022/10/03 00:23:21;;;;;;;15.82;2.28;;;9.90;99.90;;;;;;5069155;28;20531;-56
2022/10/03 00:25:52;;;;;;;16.50;1.92;;;9.90;99.90;;;;;;5070943;28;20422;-56
2022/10/03 00:28:43;;;;;;;13.05;1.90;;;12.00;99.90;;;;;;5071559;28;20047;-56
2022/10/03 00:31:41;;;;;;;14.98;2.88;;;9.80;99.90;;;;;;5071795;28;20130;-56
2022/10/03 00:34:26;;;;;;;17.77;2.55;;;10.10;99.90;;;;;;5068585;28;20147;-56
2022/10/03 00:37:11;;;;;;;16.77;3.42;;;12.10;99.90;;;;;;5070605;28;20040;-56
2022/10/03 00:39:53;;;;;;;13.85;2.13;;;10.40;99.90;;;;;;5068889;28;20075;-56
2022/10/03 00:42:44;;;;;;;16.75;2.38;;;10.20;99.90;;;;;;5068932;28;20058;-56
2022/10/03 00:45:15;;;;;;;9.73;1.92;;;11.00;99.90;;;;;;5067800;28;20064;-56
2022/10/03 00:47:50;;;;;;;18.13;2.13;;;10.20;99.90;;;;;;5068325;28;20161;-56
2022/10/03 00:50:18;;;;;;;19.75;2.80;;;9.50;99.90;;;;;;5067213;28;20416;-56
2022/10/03 00:53:03;;;;;;;29.63;3.40;;;10.20;99.90;;;;;;5067459;28;20059;-56
2022/10/03 00:55:33;;;;;;;16.50;2.00;;;10.10;99.90;;;;;;5069613;28;20126;-56
2022/10/03 00:58:49;;;;;;;14.38;2.53;;;11.30;99.90;;;;;;5069430;28;20059;-57
2022/10/03 01:01:28;;;;;;;15.48;2.35;;;10.30;99.90;;;;;;5054365;28;20054;-56
2022/10/03 01:04:28;;;;;;;12.77;2.35;;;10.30;99.90;;;;;;5068756;28;20532;-57
2022/10/03 01:07:23;;;;;;;14.80;2.22;;;10.20;99.90;;;;;;5069462;28;20088;-57
2022/10/03 01:09:52;;;;;;;19.42;3.08;;;10.20;99.90;;;;;;5070217;28;20052;-57
2022/10/03 01:12:43;;;;;;;18.33;2.35;;;10.20;99.90;;;;;;5069303;28;20040;-56
2022/10/03 01:15:29;;;;;;;18.27;2.38;;;12.30;99.90;;;;;;5069432;28;20048;-57
2022/10/03 01:17:58;;;;;;;19.58;2.67;;;12.20;99.90;;;;;;5060586;28;20048;-57
2022/10/03 01:20:46;;;;;;;17.67;2.35;;;10.20;99.90;;;;;;5068287;28;20320;-57
2022/10/03 01:23:36;;;;;;;15.57;3.33;;;12.30;99.90;;;;;;5073083;28;20044;-57
2022/10/03 01:26:25;;;;;;;17.92;2.58;;;10.30;99.90;;;;;;5072579;28;20742;-56
2022/10/03 01:31:53;;;;;;;12.80;2.08;;;12.20;99.90;;;;;;5074282;28;20047;-57
2022/10/03 01:34:48;;;;;;;17.55;2.67;;;11.70;99.90;;;;;;5073096;28;20450;-57
2022/10/03 01:37:22;;;;;;;14.95;2.35;;;10.50;99.90;;;;;;5070837;28;20048;-57
2022/10/03 01:40:16;;;;;;;10.68;2.00;;;12.60;99.90;;;;;;5071247;28;20504;-56
2022/10/03 01:43:31;;;;;;;17.58;2.65;;;10.50;99.90;;;;;;5072275;28;20036;-57
2022/10/03 01:46:22;;;;;;;15.38;2.47;;;12.30;99.90;;;;;;5054909;28;20048;-57
2022/10/03 01:49:01;;;;;;;19.13;2.90;;;10.50;99.90;;;;;;5072112;28;20579;-57
2022/10/03 01:51:59;;;;;;;17.85;3.22;;;10.50;99.90;;;;;;5071554;28;20462;-57
2022/10/03 01:54:28;;;;;;;14.55;2.50;;;10.40;99.90;;;;;;5071253;28;20105;-57
2022/10/03 01:56:57;;;;;;;21.80;3.13;;;10.60;99.90;;;;;;5070068;28;20040;-57
2022/10/03 01:59:49;;;;;;;16.08;2.60;;;10.40;99.90;;;;;;5071473;28;20043;-56
2022/10/03 02:02:32;;;;;;;;;;;10.50;99.90;;;;;;5072127;28;20578;-57
2022/10/03 02:05:08;;;;;;;14.50;2.63;;;10.20;99.90;;;;;;5072198;28;19954;-57
2022/10/03 02:07:53;;;;;;;17.00;2.70;;;10.20;99.90;;;;;;5072186;28;21342;-57
2022/10/03 02:10:37;;;;;;;15.30;2.50;;;10.20;99.90;;;;;;5071999;28;20062;-56
2022/10/03 02:13:27;;;;;;;13.82;3.20;;;11.00;99.90;;;;;;5071691;28;20696;-57
2022/10/03 02:16:26;;;;;;;13.52;2.40;;;10.20;99.90;;;;;;5070571;28;20434;-57
2022/10/03 02:19:04;;;;;;;15.82;2.78;;;10.30;99.90;;;;;;5070990;28;20559;-57
2022/10/03 02:21:32;;;;;;;10.93;2.28;;;10.30;99.90;;;;;;5070761;28;20051;-57
2022/10/03 02:24:38;;;;;;;15.45;2.83;;;10.70;99.90;;;;;;5070418;28;20051;-56
2022/10/03 02:27:25;;;;;;;9.45;2.17;;;10.30;99.90;;;;;;5056318;28;20051;-56
2022/10/03 02:30:10;;;;;;;11.43;2.83;;;10.40;99.90;;;;;;5071428;28;21056;-57
2022/10/03 02:32:44;;;;;;;14.15;2.00;;;10.40;99.90;;;;;;5072374;28;20040;-56
2022/10/03 02:36:07;;;;;;;17.38;2.78;;;10.40;99.90;;;;;;5072247;28;20040;-56
2022/10/03 02:39:03;;;;;;;10.00;2.03;;;10.40;99.90;;;;;;4991854;28;20046;-57
2022/10/03 02:41:38;;;;;;;12.60;2.67;;;10.50;99.90;;;;;;4992246;28;20057;-57
2022/10/03 02:44:09;;;;;;;18.35;3.08;;;10.40;99.90;;;;;;5060585;28;20445;-57
2022/10/03 02:47:15;;;;;;;17.60;2.77;;;10.30;99.90;;;;;;5070849;28;20040;-57
2022/10/03 02:50:02;;;;;;;20.83;2.50;;;10.40;99.90;;;;;;5072126;28;20377;-57
2022/10/03 02:52:44;;;;;;;20.23;2.60;;;10.50;99.90;;;;;;5072019;28;20396;-56
2022/10/03 02:55:47;;;;;;;21.02;2.70;;;10.50;99.90;;;;;;5072589;28;20526;-56
2022/10/03 02:58:55;;;;;;;13.57;2.03;;;10.50;99.90;;;;;;5070456;28;20456;-56
2022/10/03 03:01:39;;;;;;;12.05;2.40;;;10.40;99.90;;;;;;5071757;28;20503;-56
2022/10/03 03:04:16;;;;;;;16.35;2.42;;;10.60;99.90;;;;;;5069998;28;20522;-57
2022/10/03 03:07:06;;;;;;;13.35;2.35;;;10.40;99.90;;;;;;5070611;28;20047;-56
2022/10/03 03:10:10;;;;;;;17.20;2.88;;;10.60;99.90;;;;;;5070650;28;20194;-56
2022/10/03 03:13:07;;;;;;;16.30;3.15;;;10.60;99.90;;;;;;5070965;28;20044;-57
2022/10/03 03:15:43;;;;;;;16.77;2.42;;;10.80;99.90;;;;;;5071873;28;20130;-57
2022/10/03 03:18:33;;;;;;;12.80;2.38;;;10.60;99.90;;;;;;5069370;28;20534;-57
2022/10/03 03:21:13;;;;;;;13.23;3.10;;;10.50;99.90;;;;;;5070162;28;20047;-57
2022/10/03 03:23:49;;;;;;;21.80;2.88;;;10.60;99.90;;;;;;5069241;28;20051;-57
2022/10/03 03:26:40;;;;;;;13.35;1.95;;;10.50;99.90;;;;;;5070152;28;20096;-56
2022/10/03 03:29:41;;;;;;;11.45;1.90;;;10.50;99.90;;;;;;5071185;28;20093;-57
2022/10/03 03:32:30;;;;;;;12.43;2.10;;;10.50;99.90;;;;;;5069541;28;20080;-56
2022/10/03 03:35:11;;;;;;;12.68;2.22;;;10.60;99.90;;;;;;5068008;28;20366;-57
2022/10/03 03:38:09;;;;;;;19.92;2.25;;;10.30;99.90;;;;;;5070713;28;20044;-57
2022/10/03 03:41:22;;;;;;;12.15;2.10;;;10.50;99.90;;;;;;5054423;28;20488;-57
2022/10/03 03:43:58;;;;;;;17.00;2.03;;;10.40;99.90;;;;;;5038367;28;20581;-57
2022/10/03 03:46:52;;;;;;;12.75;2.55;;;11.40;99.90;;;;;;5069345;28;20047;-57
2022/10/03 03:49:30;;;;;;;8.50;1.67;;;10.30;99.90;;;;;;5069861;28;20108;-57
2022/10/03 03:52:04;;;;;;;12.85;1.80;;;10.30;99.90;;;;;;5069304;28;20436;-57
2022/10/03 03:54:45;;;;;;;13.88;1.98;;;12.00;99.90;;;;;;5069940;28;20040;-57
2022/10/03 03:57:32;;;;;;;12.45;2.20;;;10.70;99.90;;;;;;5069518;28;24117;-56
2022/10/03 04:00:14;;;;;;;12.73;2.10;;;10.10;99.90;;;;;;5070587;28;20047;-56
2022/10/03 04:02:58;;;;;;;15.40;2.28;;;10.10;99.90;;;;;;5070435;28;20120;-57
2022/10/03 04:05:52;;;;;;;12.60;2.08;;;10.00;99.90;;;;;;5070608;28;20040;-57
2022/10/03 04:08:42;;;;;;;9.18;2.13;;;10.20;99.90;;;;;;5071233;28;20506;-57
2022/10/03 04:11:38;;;;;;;11.77;1.63;;;10.20;99.90;;;;;;5070642;28;20044;-56
2022/10/03 04:14:33;;;;;;;15.27;1.98;;;10.10;99.90;;;;;;5069170;28;20043;-57
2022/10/03 04:20:12;;;;;;;14.57;1.90;;;12.10;99.90;;;;;;5070236;28;20655;-57
2022/10/03 04:22:59;;;;;;;15.88;1.98;;;10.00;99.90;;;;;;5067874;28;20511;-57
2022/10/03 04:25:27;;;;;;;14.13;1.92;;;9.90;99.90;;;;;;5069574;28;20131;-57
2022/10/03 04:28:17;;;;;;;12.45;2.72;;;9.90;99.90;;;;;;5070016;28;20558;-57
2022/10/03 04:30:57;;;;;;;10.75;2.00;;;10.10;99.90;;;;;;5071311;28;20283;-57
2022/10/03 04:33:44;;;;;;;10.55;2.53;;;11.40;99.90;;;;;;5068601;28;20040;-57
2022/10/03 04:36:19;;;;;;;12.13;2.13;;;10.00;99.90;;;;;;5068878;28;20036;-57
2022/10/03 04:39:17;;;;;;;17.33;2.00;;;10.20;99.90;;;;;;5069647;28;21004;-57
2022/10/03 04:42:27;;;;;;;12.68;1.70;;;10.00;99.90;;;;;;5070668;28;20519;-57
2022/10/03 04:45:11;;;;;;;16.65;2.20;;;10.10;99.90;;;;;;5008912;28;20127;-57
2022/10/03 04:47:52;;;;;;;17.02;2.10;;;10.00;99.90;;;;;;5063212;28;20146;-57
2022/10/03 04:50:39;;;;;;;13.85;3.15;;;10.10;99.90;;;;;;5068549;28;20504;-57
2022/10/03 04:53:18;;;;;;;13.90;2.20;;;9.80;99.90;;;;;;5069899;28;20089;-56
2022/10/03 04:56:03;;;;;;;16.88;2.20;;;10.00;99.90;;;;;;5074384;28;20479;-56
2022/10/03 04:58:38;;;;;;;13.93;2.08;;;9.90;99.90;;;;;;5076710;28;20035;-57
2022/10/03 05:01:19;;;;;;;11.88;2.58;;;9.90;99.90;;;;;;5076389;28;20039;-57
2022/10/03 05:03:54;;;;;;;13.18;2.10;;;9.70;99.90;;;;;;5075966;28;20421;-57
2022/10/03 05:06:36;;;;;;;19.67;2.60;;;9.80;99.90;;;;;;5067583;28;20689;-55
2022/10/03 05:09:14;;;;;;;11.13;1.75;;;9.80;99.90;;;;;;5073429;28;20093;-57
2022/10/03 05:12:07;;;;;;;10.38;1.80;;;9.60;99.90;;;;;;5074705;28;20059;-56
2022/10/03 05:14:48;;;;;;;12.00;2.00;;;9.80;99.90;;;;;;5074233;28;20436;-57
2022/10/03 05:17:47;;;;;;;15.73;2.00;;;9.70;99.90;;;;;;5074432;28;20090;-57
2022/10/03 05:20:28;;;;;;;9.55;2.03;;;9.70;99.90;;;;;;5069462;28;20055;-57
2022/10/03 05:23:03;;;;;;;15.77;2.22;;;9.50;99.90;;;;;;5075393;28;20074;-57
2022/10/03 05:26:01;;;;;;;13.07;3.22;;;9.50;99.90;;;;;;5076060;28;20130;-57
2022/10/03 05:28:49;;;;;;;13.15;2.40;;;9.50;99.90;;;;;;5075553;28;20048;-57
2022/10/03 05:31:43;;;;;;;11.77;2.05;;;9.70;99.90;;;;;;5075094;28;20834;-57
2022/10/03 05:34:24;;;;;;;12.93;2.30;;;9.40;99.90;;;;;;5073934;28;20132;-56
2022/10/03 05:36:59;;;;;;;13.10;2.25;;;9.60;99.90;;;;;;5074830;28;20510;-56
2022/10/03 05:39:26;;;;;;;11.13;2.17;;;9.50;99.90;;;;;;5073933;28;20101;-56
2022/10/03 05:41:59;;;;;;;13.75;2.42;;;11.70;99.90;;;;;;5075193;28;20756;-55
2022/10/03 05:45:24;;;;;;;11.00;2.22;;;9.40;99.90;;;;;;5076121;28;20400;-56
2022/10/03 05:48:13;;;;;;;13.75;2.33;;;9.40;99.90;;;;;;5066156;28;20109;-55
2022/10/03 05:51:05;;;;;;;17.33;2.67;;;9.30;99.90;;;;;;5068280;28;20056;-55
2022/10/03 05:54:22;;;;;;;15.95;2.40;;;11.30;99.90;;;;;;5074894;28;20036;-55
2022/10/03 05:57:06;;;;;;;10.07;2.45;;;9.40;99.90;;;;;;5014157;28;20042;-56
2022/10/03 05:59:59;;;;;;;13.48;2.22;;;9.50;99.90;;;;;;5070539;28;20064;-55
2022/10/03 06:02:49;;;;;;;14.63;2.90;;;9.30;99.90;;;;;;5076694;28;20381;-55
2022/10/03 06:05:35;;;;;;;13.20;2.60;;;9.20;99.90;;;;;;5076454;28;20453;-56
2022/10/03 06:08:31;;;;;;;15.07;3.97;;;9.10;99.90;;;;;;5073396;28;20511;-55
2022/10/03 06:11:34;;;;;;;12.38;2.90;;;9.40;99.90;;;;;;5071521;28;20508;-56
2022/10/03 06:14:38;;;;;;;16.27;2.95;;;9.20;99.90;;;;;;5072999;28;20521;-55
2022/10/03 06:17:23;;;;;;;9.10;2.22;;;9.30;99.90;;;;;;5069890;28;20047;-56
2022/10/03 06:20:28;;;;;;;11.15;2.28;;;9.20;99.90;;;;;;5069721;28;20036;-55
2022/10/03 06:23:54;;;;;;;10.65;2.38;;;9.30;99.90;;;;;;5071173;28;20638;-56
2022/10/03 06:26:44;;;;;;;10.77;2.17;;;9.40;99.90;;;;;;4991364;28;20337;-55
2022/10/03 06:29:13;;;;;;;11.50;2.10;;;9.30;99.90;;;;;;5072301;28;20066;-55
2022/10/03 06:31:46;;;;;;;11.27;2.20;;;9.90;99.90;;;;;;5071944;28;20043;-55
2022/10/03 06:34:15;;;;;;;9.05;1.63;;;9.40;99.90;;;;;;5069730;28;21265;-55
2022/10/03 06:37:09;;;;;;;15.48;2.88;;;9.60;99.90;;;;;;5071041;28;20048;-56
2022/10/03 06:40:15;;;;;;;12.32;2.15;;;9.70;99.90;;;;;;5071649;28;20650;-55
2022/10/03 06:43:01;;;;;;;8.73;2.22;;;9.80;99.90;;;;;;5042075;28;20055;-55
2022/10/03 06:45:27;;;;;;;13.80;2.42;;;10.00;99.90;;;;;;5104261;27;20151;-56
2022/10/03 06:48:04;;;;;;;14.00;2.38;;;10.10;99.90;;;;;;5071713;28;20115;-56
2022/10/03 06:50:31;;;;;;;11.82;2.05;;;10.30;99.90;;;;;;5071625;28;20061;-55
2022/10/03 06:53:06;;;;;;;10.45;1.80;;;10.50;99.90;;;;;;5069885;28;20718;-55
2022/10/03 06:55:54;;;;;;;18.33;2.67;;;10.60;99.90;;;;;;5070521;28;20040;-56
2022/10/03 06:58:47;;;;;;;28.50;4.63;;;10.80;99.90;;;;;;5072085;28;20036;-55
2022/10/03 07:02:01;;;;;;;17.25;3.30;;;11.10;99.90;;;;;;5071619;28;20074;-55
2022/10/03 07:04:49;;;;;;;15.43;2.70;;;11.60;99.90;;;;;;5072735;28;20444;-55
2022/10/03 07:07:38;;;;;;;9.05;1.95;;;12.00;99.90;;;;;;5071593;28;20579;-56
2022/10/03 07:10:37;;;;;;;15.70;2.45;;;12.70;99.90;;;;;;5072826;28;20052;-56
2022/10/03 07:13:15;;;;;;;14.25;2.13;;;13.90;99.00;;;;;;5071812;28;20102;-56
2022/10/03 07:16:02;;;;;;;12.60;2.40;;;14.20;85.90;;;;;;5070850;28;20516;-55
2022/10/03 07:19:00;;;;;;;16.60;2.45;;;14.30;86.60;;;;;;5068692;28;20527;-55
2022/10/03 07:22:03;;;;;;;11.57;2.13;;;14.00;70.80;;;;;;5053524;28;20591;-56
2022/10/03 07:24:50;;;;;;;12.55;1.70;;;14.30;80.60;;;;;;5067756;28;20066;-56
2022/10/03 07:27:39;;;;;;;11.52;1.73;;;14.40;87.00;;;;;;5070248;28;20640;-56
2022/10/03 07:30:47;;;;;;;10.15;1.60;;;14.70;61.50;;;;;;5071248;28;20044;-56
2022/10/03 07:33:38;;;;;;;9.13;1.45;;;15.00;50.90;;;;;;5069661;28;20071;-56
2022/10/03 07:39:56;;;;;;;8.60;1.70;;;16.20;8.10;;;;;;5070139;28;20052;-56
2022/10/03 07:42:52;;;;;;;9.57;1.90;;;16.70;1.00;;;;;;5070425;28;20476;-56
2022/10/03 07:45:33;;;;;;;13.90;2.30;;;16.70;1.00;;;;;;5069611;28;20047;-56
2022/10/03 07:48:33;;;;;;;6.88;1.52;;;16.50;1.00;;;;;;5067419;28;20290;-56
2022/10/03 07:51:22;;;;;;;12.07;1.60;;;16.50;1.00;;;;;;5070899;28;20052;-56
2022/10/03 07:54:06;;;;;;;8.45;1.88;;;15.80;1.00;;;;;;5068892;28;20491;-56
2022/10/03 07:56:59;;;;;;;7.47;1.80;;;15.60;1.00;;;;;;5052985;28;20156;-56
2022/10/03 07:59:40;;;;;;;10.93;2.08;;;15.20;12.60;;;;;;5069756;28;20123;-56
2022/10/03 08:02:27;;;;;;;8.65;1.80;;;14.90;23.00;;;;;;5070643;28;20093;-56
2022/10/03 08:05:26;;;;;;;9.38;1.60;;;14.80;31.00;;;;;;5071004;28;20574;-56
2022/10/03 08:08:15;;;;;;;11.10;2.00;;;14.80;35.70;;;;;;5067569;28;20109;-57
2022/10/03 08:11:06;;;;;;;11.90;2.03;;;15.90;47.30;;;;;;5068625;28;20043;-56
2022/10/03 08:14:07;;;;;;;9.43;1.80;;;14.30;56.50;;;;;;5070791;28;20032;-56
2022/10/03 08:16:51;;;;;;;9.63;1.98;;;14.50;58.10;;;;;;5057012;28;20056;-56
2022/10/03 08:19:26;;;;;;;9.75;1.73;;;14.50;65.70;;;;;;5071026;28;20040;-56
2022/10/03 08:22:02;;;;;;;13.55;1.42;;;14.50;68.50;;;;;;5069123;28;20385;-56
2022/10/03 08:24:38;;;;;;;11.13;1.60;;;14.50;67.30;;;;;;5070122;28;20036;-56
2022/10/03 08:27:41;;;;;;;12.25;1.80;;;14.30;63.70;;;;;;5070919;28;20504;-56
2022/10/03 08:30:07;;;;;;;7.85;1.73;;;14.60;59.40;;;;;;5068364;28;20071;-57
2022/10/03 08:32:41;;;;;;;13.13;1.58;;;14.60;69.20;;;;;;5072346;28;20059;-56
2022/10/03 08:35:37;;;;;;;10.20;1.60;;;14.50;66.00;;;;;;5071501;28;20069;-56
2022/10/03 08:38:30;;;;;;;13.55;1.73;;;14.80;68.30;;;;;;5037096;28;20090;-57
2022/10/03 08:41:28;;;;;;;11.07;2.03;;;14.60;69.20;;;;;;5070539;28;20802;-56
2022/10/03 08:44:14;;;;;;;12.10;2.00;;;15.10;63.40;;;;;;5070611;28;20043;-57
2022/10/03 08:47:06;;;;;;;8.63;1.73;;;15.30;50.50;;;;;;5069060;28;20046;-56
2022/10/03 08:49:59;;;;;;;18.08;2.22;;;15.40;47.40;;;;;;5049452;28;20408;-56
2022/10/03 08:53:03;;;;;;;8.80;1.60;;;15.10;45.00;;;;;;5069277;28;20079;-56
2022/10/03 08:55:54;;;;;;;9.95;1.60;;;15.20;43.20;;;;;;5068933;28;20404;-56
2022/10/03 08:58:41;;;;;;;10.43;1.27;;;15.20;50.30;;;;;;5068184;28;20581;-56
2022/10/03 09:01:22;;;;;;;7.32;1.20;;;15.40;35.50;;;;;;5068981;28;20378;-56
2022/10/03 09:04:07;;;;;;;13.27;2.40;;;15.40;42.10;;;;;;5053494;28;20044;-56
2022/10/03 09:07:06;;;;;;;12.55;2.20;;;15.40;35.50;;;;;;5068710;28;20093;-56
2022/10/03 09:09:51;;;;;;;6.22;1.30;;;15.40;33.80;;;;;;5068509;28;20075;-56
2022/10/03 09:12:58;;;;;;;13.63;1.63;;;15.50;22.80;;;;;;5069700;28;20039;-56
2022/10/03 09:15:24;;;;;;;11.68;1.73;;;15.40;8.50;;;;;;5068445;28;20772;-56
2022/10/03 09:18:25;;;;;;;8.52;1.45;;;15.50;26.80;;;;;;5070866;28;20121;-56
2022/10/03 09:21:12;;;;;;;21.67;1.83;;;15.60;30.10;;;;;;5068013;28;20063;-57
2022/10/03 09:24:17;;;;;;;8.90;1.27;;;15.60;23.10;;;;;;5068539;28;20036;-57
2022/10/03 09:27:30;;;;;;;15.85;2.60;;;15.80;19.50;;;;;;5068906;28;20163;-57
2022/10/03 09:30:15;;;;;;;8.10;1.35;;;15.90;11.60;;;;;;5067818;28;20044;-57
2022/10/03 09:33:05;;;;;;;9.80;1.77;;;16.10;10.10;;;;;;5069426;28;20661;-57
2022/10/03 09:35:58;;;;;;;9.35;1.45;;;15.90;5.20;;;;;;5068609;28;20036;-57
2022/10/03 09:38:37;;;;;;;9.60;1.40;;;15.90;7.20;;;;;;5069439;28;20040;-56
2022/10/03 09:41:40;;;;;;;5.30;1.00;;;16.00;5.30;;;;;;5071614;28;20504;-57
2022/10/03 09:44:12;;;;;;;8.40;1.40;;;15.80;1.00;;;;;;5072204;28;20040;-57
2022/10/03 09:47:21;;;;;;;8.48;1.45;;;15.80;7.70;;;;;;5073103;28;20404;-57
2022/10/03 09:50:36;;;;;;;10.75;1.15;;;16.10;10.40;;;;;;5072533;28;20416;-57
2022/10/03 09:53:22;;;;;;;5.55;1.00;;;16.00;5.30;;;;;;5073766;28;20055;-56
2022/10/03 09:56:22;;;;;;;11.20;2.65;;;16.50;7.20;;;;;;5071213;28;20102;-57
2022/10/03 09:59:25;;;;;;;8.65;1.83;;;16.40;1.00;;;;;;5072420;28;20048;-56
2022/10/03 10:02:10;;;;;;;9.15;1.98;;;16.50;1.00;;;;;;5073485;28;20592;-57
2022/10/03 10:05:00;;;;;;;7.22;1.17;;;16.40;1.00;;;;;;5073318;28;20054;-57
2022/10/03 10:08:04;;;;;;;6.07;1.20;;;16.40;1.00;;;;;;5072780;28;20031;-57
2022/10/03 10:10:47;;;;;;;11.85;1.85;;;16.70;1.00;;;;;;5031961;28;20047;-56
2022/10/03 10:13:45;;;;;;;7.22;1.50;;;16.50;1.00;;;;;;5072211;28;20078;-56
2022/10/03 10:16:25;;;;;;;10.88;1.17;;;16.70;1.00;;;;;;5072201;28;20507;-56
2022/10/03 10:19:16;;;;;;;7.30;1.40;;;16.70;1.00;;;;;;5072974;28;20124;-57
2022/10/03 10:22:27;;;;;;;7.50;1.30;;;16.50;1.00;;;;;;5070620;28;20079;-56
2022/10/03 10:25:04;;;;;;;10.00;1.55;;;16.80;1.00;;;;;;5071485;28;20040;-56
2022/10/03 10:27:49;;;;;;;6.32;1.05;;;16.80;1.00;;;;;;5071297;28;20036;-57
2022/10/03 10:30:36;;;;;;;9.23;1.20;;;16.80;1.00;;;;;;5070838;28;20047;-57
2022/10/03 10:33:39;;;;;;;6.97;1.50;;;16.80;1.00;;;;;;5072790;28;20740;-56
2022/10/03 10:36:20;;;;;;;8.07;1.38;;;17.10;1.00;;;;;;5073356;28;20036;-57
2022/10/03 10:39:14;;;;;;;6.13;1.08;;;17.10;1.00;;;;;;5071795;28;20052;-57
2022/10/03 10:42:13;;;;;;;7.00;1.38;;;17.10;1.00;;;;;;5070387;28;20055;-56
2022/10/03 10:45:01;;;;;;;7.40;1.20;;;17.30;99.90;;;;;;5071676;28;20079;-56
2022/10/03 10:47:52;;;;;;;8.15;1.50;;;17.40;1.00;;;;;;5070871;28;20129;-56
2022/10/03 10:50:46;;;;;;;12.27;1.30;;;17.30;1.00;;;;;;5070431;28;20055;-56
2022/10/03 10:53:46;;;;;;;6.80;1.00;;;17.50;1.00;;;;;;5071307;28;20052;-56
2022/10/03 10:57:02;;;;;;;8.00;1.17;;;18.60;99.90;;;;;;5072059;28;20039;-56
2022/10/03 10:59:43;;;;;;;10.57;1.05;;;17.50;99.90;;;;;;5053335;28;20180;-56
2022/10/03 11:02:09;;;;;;;9.45;1.70;;;17.50;1.00;;;;;;5071802;28;20331;-56
2022/10/03 11:05:17;;;;;;;6.60;1.55;;;17.60;1.00;;;;;;5073953;28;20056;-57
2022/10/03 11:07:52;;;;;;;5.15;1.30;;;17.60;99.90;;;;;;5071269;28;20051;-56
2022/10/03 11:10:54;;;;;;;6.68;1.40;;;17.60;1.00;;;;;;5070458;28;20048;-56
2022/10/03 11:13:26;;;;;;;7.35;1.10;;;17.70;99.90;;;;;;5071939;28;20035;-56
2022/10/03 11:16:10;;;;;;;;;;;15.60;1.00;;;;;;5072957;28;20040;-56
2022/10/03 11:19:07;;;;;;;9.00;1.27;;;17.50;99.90;;;;;;5069507;28;20006;-56
2022/10/03 11:21:58;;;;;;;9.05;1.45;;;17.60;1.00;;;;;;5071229;28;20181;-56
2022/10/03 11:25:03;;;;;;;9.20;1.70;;;17.70;1.00;;;;;;5070229;28;20123;-56
2022/10/03 11:28:03;;;;;;;7.57;1.88;;;17.70;1.00;;;;;;5071621;28;20035;-57
2022/10/03 11:30:50;;;;;;;9.32;1.88;;;17.70;99.90;;;;;;5068295;28;20140;-57
2022/10/03 11:33:20;;;;;;;5.70;1.40;;;18.00;1.00;;;;;;5069657;28;20051;-57
2022/10/03 11:35:57;;;;;;;6.40;1.25;;;17.90;1.00;;;;;;5070551;28;21033;-57
2022/10/03 11:38:28;;;;;;;8.95;1.42;;;18.10;99.90;;;;;;5069813;28;20044;-57
2022/10/03 11:41:11;;;;;;;8.13;1.20;;;18.10;99.90;;;;;;5069846;28;20486;-56
2022/10/03 11:44:14;;;;;;;6.95;1.42;;;18.00;99.90;;;;;;5070242;28;21211;-56
2022/10/03 11:46:59;;;;;;;5.72;1.33;;;17.80;99.90;;;;;;5069629;28;20048;-56
2022/10/03 11:49:43;;;;;;;7.55;1.50;;;17.80;99.90;;;;;;5069540;28;20121;-57
2022/10/03 11:52:17;;;;;;;9.65;1.35;;;17.60;99.90;;;;;;5069887;28;20048;-57
2022/10/03 11:54:48;;;;;;;8.05;1.17;;;15.80;1.00;;;;;;5070020;28;20413;-56
2022/10/03 11:57:32;;;;;;;6.85;1.17;;;17.50;1.00;;;;;;5070244;28;20120;-57
2022/10/03 12:00:05;;;;;;;6.50;1.02;;;17.30;99.90;;;;;;5070410;28;20341;-56
2022/10/03 12:02:33;;;;;;;4.95;1.10;;;17.30;1.00;;;;;;5069261;28;20029;-56
2022/10/03 12:05:21;;;;;;;6.63;1.30;;;17.00;1.00;;;;;;5069763;28;20047;-56
2022/10/03 12:11:22;;;;;;;8.50;2.30;;;16.90;99.90;;;;;;5071372;28;20062;-56
2022/10/03 12:14:03;;;;;;;6.50;1.20;;;16.90;1.00;;;;;;5069353;28;20040;-56
2022/10/03 12:16:58;;;;;;;7.60;1.40;;;16.90;1.00;;;;;;5068818;28;20036;-56
2022/10/03 12:19:37;;;;;;;9.40;1.63;;;17.10;1.00;;;;;;5066286;28;20071;-56
2022/10/03 12:22:22;;;;;;;6.90;1.40;;;17.00;1.00;;;;;;5069335;28;20120;-56
2022/10/03 12:24:49;;;;;;;9.18;1.40;;;17.00;1.00;;;;;;5068583;28;20203;-56
2022/10/03 12:27:47;;;;;;;8.63;1.73;;;17.00;1.00;;;;;;5067873;28;20107;-57
2022/10/03 12:30:17;;;;;;;4.28;0.95;;;17.30;1.00;;;;;;5063739;28;20044;-57
2022/10/03 12:32:57;;;;;;;9.02;1.25;;;17.30;1.00;;;;;;5067484;28;20054;-56
2022/10/03 12:35:37;;;;;;;8.90;1.10;;;17.30;1.00;;;;;;5069152;28;20047;-57
2022/10/03 12:38:12;;;;;;;7.00;1.20;;;17.20;1.00;;;;;;5069888;28;20127;-56
2022/10/03 12:40:43;;;;;;;4.95;1.10;;;17.30;1.00;;;;;;5070363;28;20539;-56
2022/10/03 12:43:35;;;;;;;5.25;1.30;;;17.00;1.00;;;;;;5069944;28;20050;-56
2022/10/03 12:46:05;;;;;;;8.63;2.13;;;17.20;1.00;;;;;;5053530;28;20138;-56
2022/10/03 12:48:47;;;;;;;11.07;1.48;;;17.10;1.00;;;;;;5069664;28;20401;-56
2022/10/03 12:51:34;;;;;;;6.88;1.13;;;17.00;1.00;;;;;;5069805;28;20511;-57
2022/10/03 12:54:22;;;;;;;5.32;0.85;;;17.00;1.00;;;;;;5068651;28;20381;-56
2022/10/03 12:57:09;;;;;;;6.05;1.20;;;16.80;1.00;;;;;;5070246;28;20040;-56
2022/10/03 12:59:41;;;;;;;6.35;1.20;;;16.90;1.00;;;;;;5061209;28;20056;-56
2022/10/03 13:02:15;;;;;;;7.53;2.08;;;16.90;1.00;;;;;;5069800;28;20152;-56
2022/10/03 13:04:41;;;;;;;11.77;1.75;;;16.70;1.00;;;;;;5070081;28;20041;-56
2022/10/03 13:07:17;;;;;;;4.38;1.10;;;16.70;1.00;;;;;;5069012;28;20052;-57
2022/10/03 13:10:11;;;;;;;12.10;1.58;;;16.60;1.00;;;;;;5069073;28;20040;-55
2022/10/03 13:12:42;;;;;;;6.93;1.50;;;16.70;1.00;;;;;;5068745;28;20403;-56
2022/10/03 13:15:35;;;;;;;8.23;1.40;;;16.80;1.00;;;;;;5066128;28;20048;-56
2022/10/03 13:18:10;;;;;;;6.22;1.48;;;16.60;1.00;;;;;;5072883;28;20052;-56
2022/10/03 13:20:40;;;;;;;6.57;1.10;;;16.50;1.00;;;;;;5072834;28;20234;-56
2022/10/03 13:23:30;;;;;;;8.02;1.73;;;16.50;1.00;;;;;;5072878;28;20048;-56
2022/10/03 13:26:07;;;;;;;6.90;1.30;;;16.40;1.00;;;;;;5073820;28;20040;-56
2022/10/03 13:29:11;;;;;;;10.63;1.55;;;16.60;1.00;;;;;;5072529;28;20048;-57
2022/10/03 13:32:01;;;;;;;10.93;1.83;;;16.80;1.00;;;;;;5071420;28;20045;-55
2022/10/03 13:34:45;;;;;;;8.43;1.20;;;16.40;1.00;;;;;;5074059;28;20048;-56
2022/10/03 13:37:36;;;;;;;5.78;1.50;;;16.60;1.00;;;;;;5071844;28;20048;-56
2022/10/03 13:40:07;;;;;;;10.68;2.20;;;16.80;1.00;;;;;;5071823;28;20052;-56
2022/10/03 13:42:40;;;;;;;;;;;16.60;1.00;;;;;;5057487;28;20056;-56
2022/10/03 13:45:13;;;;;;;11.27;1.40;;;16.90;1.00;;;;;;5074647;28;19920;-56
2022/10/03 13:47:41;;;;;;;7.55;1.67;;;17.00;1.00;;;;;;5073910;28;20040;-56
2022/10/03 13:50:23;;;;;;;7.95;1.13;;;16.80;1.00;;;;;;5073572;28;20755;-56
2022/10/03 13:52:56;;;;;;;9.85;1.40;;;16.90;1.00;;;;;;5073724;28;20051;-56
2022/10/03 13:55:41;;;;;;;5.95;1.40;;;17.00;1.00;;;;;;5072813;28;20526;-56
2022/10/03 13:58:25;;;;;;;7.53;1.38;;;16.80;1.00;;;;;;5074352;28;20502;-56
2022/10/03 14:01:16;;;;;;;5.15;1.23;;;16.90;1.00;;;;;;5073281;28;20071;-56
2022/10/03 14:04:24;;;;;;;7.22;1.20;;;17.00;1.00;;;;;;5073977;28;20036;-56
2022/10/03 14:07:17;;;;;;;7.15;1.13;;;17.00;1.00;;;;;;5072805;28;20048;-56
2022/10/03 14:09:56;;;;;;;8.27;1.33;;;17.00;1.00;;;;;;5071554;28;20126;-56
2022/10/03 14:12:43;;;;;;;7.63;1.70;;;17.00;1.00;;;;;;5070060;28;20050;-56
2022/10/03 14:15:38;;;;;;;10.90;1.45;;;16.90;1.00;;;;;;5071501;28;20059;-56
2022/10/03 14:18:17;;;;;;;7.93;1.25;;;16.90;1.00;;;;;;5071202;28;20044;-56
2022/10/03 14:20:52;;;;;;;5.47;1.23;;;17.00;1.00;;;;;;5072197;28;20066;-56
2022/10/03 14:23:18;;;;;;;7.07;1.42;;;17.00;1.00;;;;;;5070640;28;20086;-56
2022/10/03 14:25:52;;;;;;;7.25;1.20;;;17.00;1.00;;;;;;5072174;28;20035;-55
2022/10/03 14:28:31;;;;;;;9.02;1.48;;;17.00;1.00;;;;;;5069431;28;20051;-56
2022/10/03 14:31:18;;;;;;;8.80;1.20;;;17.00;1.00;;;;;;5069548;28;20040;-56
2022/10/03 14:34:30;;;;;;;8.73;1.23;;;16.90;1.00;;;;;;5070160;28;20447;-57
2022/10/03 14:37:13;;;;;;;6.90;1.00;;;16.70;1.00;;;;;;5070049;28;20408;-56
2022/10/03 14:40:00;;;;;;;7.88;1.10;;;16.80;1.00;;;;;;5070650;28;20186;-57